Bookmark and Share
Track history (hours):
 

Drifting buoy 41560

Last reported at 2014-Apr-19 20:00 UTC. Time now 2014-Apr-19 22:07 UTC.
Position N 41°05' W 020°00'.

Barometer 1007.3 mb

NotesDate/timePositionNaut miles runAvg speedWind from/ knotsBaromVisibWave heightAir tempDewpointWater temp
2014-Apr-19 20:00N 41°05' W 020°00'1 1.0 1007.3
2014-Apr-19 19:00N 41°04' W 020°01'1 0.9 1007.0
2014-Apr-19 18:00N 41°05' W 020°02'0 0.3 1007.2
2014-Apr-19 17:00N 41°05' W 020°02'0 0.1 1007.1
2014-Apr-19 14:00N 41°05' W 020°03'0 0.3 1007.8
2014-Apr-19 13:00N 41°05' W 020°03'1 0.5 1008.4
2014-Apr-19 12:00N 41°06' W 020°03'0 0.4 1008.6
2014-Apr-19 11:00N 41°06' W 020°03'1 0.5 1008.6
2014-Apr-19 10:00N 41°06' W 020°04'0 0.0 1008.5
2014-Apr-19 09:00N 41°06' W 020°04'1 1.2 1008.6
2014-Apr-19 08:00N 41°07' W 020°06'1 0.5 1008.6
2014-Apr-19 07:00N 41°07' W 020°05'0 0.3 1008.3
2014-Apr-19 06:00N 41°07' W 020°06'1 0.9 1008.1
2014-Apr-19 05:00N 41°07' W 020°07'1 1.5 1008.5
2014-Apr-19 04:00N 41°07' W 020°09'1 1.0 1009.1
2014-Apr-19 03:00N 41°06' W 020°09'0 0.1 1009.5
2014-Apr-19 02:00N 41°06' W 020°09'0 0.0 1010.1
2014-Apr-19 01:00N 41°06' W 020°09'1 1.1 1010.9
2014-Apr-19 00:00N 41°05' W 020°08'1 0.7 1011.6
2014-Apr-18 23:00N 41°05' W 020°09'0 0.0 1012.1
2014-Apr-18 22:00N 41°05' W 020°09'0 0.3 1012.4
2014-Apr-18 21:00N 41°05' W 020°09'1 1.4 1012.2
2014-Apr-18 20:00N 41°04' W 020°11'0 0.0 1011.9
2014-Apr-18 19:00N 41°04' W 020°11'1 0.3 1011.9
2014-Apr-18 17:00N 41°04' W 020°12'0 0.0 1012.5
2014-Apr-18 16:00N 41°04' W 020°12'1 0.8 1012.7
2014-Apr-18 15:00N 41°04' W 020°13'1 0.7 1013.4
2014-Apr-18 14:00N 41°03' W 020°13'2 1.8 1013.9
2014-Apr-18 13:00N 41°03' W 020°15'1 1.1 1014.3
2014-Apr-18 12:00N 41°02' W 020°15'1 0.5 1014.8
2014-Apr-18 11:00N 41°02' W 020°15'1 0.9 1015.4
2014-Apr-18 10:00N 41°01' W 020°16'2 0.6 1015.3
2014-Apr-18 07:00N 40°59' W 020°15'0 0.4 1015.2
2014-Apr-18 06:00N 40°59' W 020°16'1 0.6 1015.2
2014-Apr-18 05:00N 40°58' W 020°16'0 0.4 1015.3
2014-Apr-18 04:00N 40°58' W 020°15'1 0.7 1016.0
2014-Apr-18 03:00N 40°57' W 020°16'0 0.0 1016.2
2014-Apr-18 02:00N 40°57' W 020°16'1 0.4 1016.8
2014-Apr-17 23:00N 40°56' W 020°17'0 0.2 1017.7
2014-Apr-17 22:00N 40°56' W 020°17'0 0.4 1018.0
2014-Apr-17 21:00N 40°56' W 020°17'1 1.0 1017.7
2014-Apr-17 20:00N 40°55' W 020°18'0 0.2 1017.2
2014-Apr-17 19:00N 40°55' W 020°18'2 0.9 1016.9
2014-Apr-17 17:00N 40°54' W 020°18'3 0.9 1016.4
2014-Apr-17 14:00N 40°51' W 020°19'1 1.4 1016.5
2014-Apr-17 13:00N 40°50' W 020°18'0 0.3 1016.0
2014-Apr-17 12:00N 40°50' W 020°18'1 0.5 1015.1
2014-Apr-17 11:00N 40°50' W 020°17'0 0.0 1015.4
2014-Apr-17 10:00N 40°50' W 020°17'1 0.9 1015.4
2014-Apr-17 09:00N 40°49' W 020°17'0 0.1 1016.1
2014-Apr-17 08:00N 40°49' W 020°16'0 0.1 1016.2
2014-Apr-17 07:00N 40°49' W 020°16'1 0.9 1015.5
2014-Apr-17 06:00N 40°49' W 020°15'0 0.3 1015.7
2014-Apr-17 05:00N 40°49' W 020°16'0 0.2 1016.3
2014-Apr-17 04:00N 40°49' W 020°16'0 0.1 1016.2
2014-Apr-17 03:00N 40°49' W 020°16'2 0.4 1016.7
2014-Apr-16 23:00N 40°48' W 020°18'1 0.6 1016.7
2014-Apr-16 22:00N 40°47' W 020°18'2 0.6 1016.5
2014-Apr-16 19:00N 40°46' W 020°16'0 0.1 1014.9
2014-Apr-16 18:00N 40°46' W 020°16'0 0.4 1014.6
2014-Apr-16 17:00N 40°45' W 020°16'2 0.6 1014.3
2014-Apr-16 14:00N 40°44' W 020°17'1 0.5 1014.8
2014-Apr-16 12:00N 40°44' W 020°16'1 0.7 1015.4
2014-Apr-16 11:00N 40°43' W 020°17'1 0.7 1015.5
2014-Apr-16 10:00N 40°43' W 020°16'1 1.1 1015.4
2014-Apr-16 09:00N 40°42' W 020°16'0 0.3 1014.9
2014-Apr-16 08:00N 40°42' W 020°16'1 0.6 1014.5
2014-Apr-16 07:00N 40°42' W 020°15'0 0.1 1014.0
2014-Apr-16 06:00N 40°42' W 020°15'0 0.2 1013.6
2014-Apr-16 04:00N 40°42' W 020°15'0 0.5 1014.0
2014-Apr-16 03:00N 40°41' W 020°15'1 0.3 1014.1
2014-Apr-15 22:00N 40°40' W 020°15'0 0.4 1014.5
2014-Apr-15 21:00N 40°40' W 020°15'1 0.5 1014.1
2014-Apr-15 20:00N 40°40' W 020°14'0 0.0 1013.3
2014-Apr-15 17:00N 40°39' W 020°14'0 0.2 1012.2
2014-Apr-15 16:00N 40°39' W 020°14'1 0.5 1012.3
2014-Apr-15 15:00N 40°39' W 020°14'0 0.0 1012.4
2014-Apr-15 14:00N 40°39' W 020°14'0 0.4 1012.4
2014-Apr-15 13:00N 40°38' W 020°14'1 1.0 1012.2
2014-Apr-15 12:00N 40°38' W 020°16'0 0.4 1012.1
2014-Apr-15 11:00N 40°38' W 020°15'1 0.6 1011.7
2014-Apr-15 10:00N 40°37' W 020°15'1 0.4 1011.3
2014-Apr-15 07:00N 40°36' W 020°14'0 0.5 1009.7
2014-Apr-15 06:00N 40°36' W 020°14'1 0.8 1009.0
2014-Apr-15 05:00N 40°35' W 020°14'0 0.0 1008.8
2014-Apr-15 04:00N 40°35' W 020°14'0 0.4 1008.9
2014-Apr-15 03:00N 40°35' W 020°14'4 0.8 1009.4
2014-Apr-14 22:00N 40°31' W 020°12'0 0.0 1011.9
2014-Apr-14 21:00N 40°31' W 020°12'0 0.0 1011.8
2014-Apr-14 20:00N 40°31' W 020°12'1 0.6 1011.5
2014-Apr-14 19:00N 40°31' W 020°11'1 0.9 1011.5
2014-Apr-14 18:00N 40°31' W 020°11'0 0.1 1011.7
2014-Apr-14 17:00N 40°31' W 020°11'1 0.8 1012.3
2014-Apr-14 16:00N 40°30' W 020°10'1 1.2 1012.9
2014-Apr-14 15:00N 40°30' W 020°09'2 0.6 1013.5
2014-Apr-14 12:00N 40°28' W 020°08'0 0.3 1015.4
2014-Apr-14 11:00N 40°28' W 020°08'1 0.6 1015.9
2014-Apr-14 10:00N 40°27' W 020°08'1 0.5 1015.8
2014-Apr-14 07:00N 40°26' W 020°06'1 1.3 1015.9
2014-Apr-14 06:00N 40°26' W 020°04'0 0.2 1015.9
2014-Apr-14 05:00N 40°26' W 020°05'1 1.2 1016.2
2014-Apr-14 04:00N 40°26' W 020°03'0 0.2 1016.8
2014-Apr-14 03:00N 40°26' W 020°03'0 0.2 1017.3
2014-Apr-14 02:00N 40°26' W 020°03'1 1.3 1018.3
2014-Apr-14 01:00N 40°25' W 020°02'0 0.2 1018.8
2014-Apr-13 23:00N 40°24' W 020°02'1 0.5 1019.6
2014-Apr-13 22:00N 40°24' W 020°02'1 1.3 1019.9
2014-Apr-13 21:00N 40°23' W 020°01'0 0.0 1019.9
2014-Apr-13 20:00N 40°23' W 020°01'3 0.5 1020.1
2014-Apr-13 15:00N 40°22' W 019°58'1 0.8 1021.3
2014-Apr-13 14:00N 40°21' W 019°57'1 0.8 1022.2
2014-Apr-13 13:00N 40°20' W 019°57'0 0.5 1022.6
2014-Apr-13 12:00N 40°21' W 019°57'1 0.7 1022.9
2014-Apr-13 11:00N 40°20' W 019°57'2 1.6 1023.1
2014-Apr-13 10:00N 40°19' W 019°55'1 0.3 1023.1
2014-Apr-13 08:00N 40°19' W 019°55'1 0.8 1022.9
2014-Apr-13 07:00N 40°19' W 019°54'1 0.6 1022.9
2014-Apr-13 06:00N 40°19' W 019°53'0 0.5 1022.9
2014-Apr-13 05:00N 40°19' W 019°54'1 0.6 1022.9
2014-Apr-13 03:00N 40°18' W 019°52'0 0.0 1023.9
2014-Apr-13 02:00N 40°18' W 019°52'3 0.7 1024.3
2014-Apr-12 22:00N 40°17' W 019°49'1 0.7 1024.9
2014-Apr-12 21:00N 40°17' W 019°48'1 1.4 1025.3
2014-Apr-12 20:00N 40°16' W 019°47'1 0.4 1024.6
2014-Apr-12 18:00N 40°16' W 019°46'0 0.0 1024.5
2014-Apr-12 17:00N 40°16' W 019°46'0 0.0 1024.5
2014-Apr-12 16:00N 40°16' W 019°46'1 0.8 1024.8
2014-Apr-12 15:00N 40°17' W 019°46'0 0.0 1024.7
2014-Apr-12 14:00N 40°17' W 019°46'1 0.5 1025.2
2014-Apr-12 12:00N 40°17' W 019°45'0 0.3 1025.4
2014-Apr-12 11:00N 40°17' W 019°44'1 0.9 1025.5
2014-Apr-12 10:00N 40°18' W 019°44'1 0.9 1025.2
2014-Apr-12 09:00N 40°17' W 019°45'0 0.0 1025.0
2014-Apr-12 08:00N 40°17' W 019°45'1 0.6 1024.7
2014-Apr-12 06:00N 40°18' W 019°43'0 0.1 1023.9
2014-Apr-12 05:00N 40°18' W 019°43'1 0.3 1023.6
2014-Apr-12 03:00N 40°18' W 019°42'1 0.2 1023.4
2014-Apr-11 19:00N 40°19' W 019°41'0 0.4 1024.3
2014-Apr-11 18:00N 40°19' W 019°41'1 0.3 1024.3
2014-Apr-11 15:00N 40°20' W 019°40'0 0.0 1024.8
2014-Apr-11 14:00N 40°20' W 019°40'0 0.1 1025.1
2014-Apr-11 13:00N 40°20' W 019°40'1 0.6 1025.2
2014-Apr-11 12:00N 40°20' W 019°40'0 0.1 1025.4
2014-Apr-11 11:00N 40°20' W 019°40'0 0.4 1025.4
2014-Apr-11 10:00N 40°21' W 019°40'1 0.3 1025.1
2014-Apr-11 07:00N 40°21' W 019°40'1 0.5 1024.6
2014-Apr-11 06:00N 40°21' W 019°40'1 0.6 1024.1
2014-Apr-11 05:00N 40°21' W 019°39'0 0.4 1023.9
2014-Apr-11 04:00N 40°21' W 019°39'1 0.6 1023.7
2014-Apr-11 03:00N 40°21' W 019°39'0 0.0 1023.8
2014-Apr-11 02:00N 40°21' W 019°39'0 0.0 1024.3
2014-Apr-11 01:00N 40°21' W 019°39'1 0.6 1025.0
2014-Apr-10 23:00N 40°21' W 019°37'1 0.3 1025.2
2014-Apr-10 21:00N 40°21' W 019°36'0 0.5 1024.6
2014-Apr-10 20:00N 40°22' W 019°36'1 0.4 1024.0
2014-Apr-10 17:00N 40°22' W 019°34'1 0.3 1023.5
2014-Apr-10 15:00N 40°22' W 019°34'0 0.0 1023.5
2014-Apr-10 14:00N 40°22' W 019°34'1 0.8 1024.0
2014-Apr-10 13:00N 40°22' W 019°33'0 0.0 1024.0
2014-Apr-10 12:00N 40°22' W 019°33'1 0.6 1024.3
2014-Apr-10 11:00N 40°22' W 019°32'0 0.5 1024.3
2014-Apr-10 10:00N 40°22' W 019°33'0 0.0 1024.1
2014-Apr-10 09:00N 40°22' W 019°33'2 1.2 1023.8
2014-Apr-10 07:00N 40°22' W 019°29'0 0.1 1023.1
2014-Apr-10 06:00N 40°22' W 019°30'1 0.7 1022.7
2014-Apr-10 05:00N 40°22' W 019°29'1 0.6 1022.5
2014-Apr-10 04:00N 40°22' W 019°29'1 0.8 1022.2
2014-Apr-10 03:00N 40°23' W 019°28'0 0.0 1022.5
2014-Apr-10 02:00N 40°23' W 019°28'1 0.3 1022.7
2014-Apr-09 23:00N 40°23' W 019°27'0 0.0 1022.6
2014-Apr-09 22:00N 40°23' W 019°27'0 0.2 1022.5
2014-Apr-09 21:00N 40°23' W 019°27'1 0.8 1022.3
2014-Apr-09 20:00N 40°23' W 019°26'   1021.9

Dump ship's entire track history

sailing weather and tide predictions

Buoy 41560